Archival Weather

Barra Do Garcas

Barra Do Garcas, Brazil (SBBW)

Report from: Saturday, December 2, 2023 9:00 AM -03
Current time: Wednesday, April 24, 2024 3:20 PM -03

Current weather – Weather history – Daily summaries
Weather forecast

Temperature31.0°C (87.8°F)
Heat index37.8°C (100.0°F)
Dew point25.0°C (77.0°F)
Winds Calm
Clouds Sky clear
Altimeter29.94 in.Hg (1014 mB)
Relative humidity71 %
Density altitude2,227 ft. (679 m)
Remarks Ceiling and visibility OK
Flight conditions Visual Meteorological Conditions
Raw dataSBBW 021200Z 00000KT CAVOK 31/25 Q1014
An error has occurred. This application may no longer respond until reloaded. Reload 🗙